Flight Track Log - Related Links

Times and Time Zones

All times are in EDT time to prevent confusion due to time zone crossing. See the MAS93 flight status page for this flight to view local times or setup timezone preferences in your user account.

Time Position Orientation Groundspeed Altitude Reporting Facility
EDT Latitude Longitude Course Direction KTS MPH feet Rate Location/Type
Mon 08:26:15 PM 34.0584 -118.5209 196° South  Level FlightAware Approximate
Mon 08:27:06 PM 33.9358 -118.5625 280° West 210 242 3,900  Level Los Angeles Center
Mon 08:28:06 PM 33.9469 -118.6378 311° West 230 265 5,200 1,750 Climbing Los Angeles Center
Mon 08:29:06 PM 33.9975 -118.7069 354° North 247 284 7,400 1,900 Climbing Los Angeles Center
Mon 08:30:06 PM 34.0706 -118.7167 36° Northeast 223 257 9,000 950 Climbing Los Angeles Center
Mon 08:31:06 PM 34.1386 -118.6561 24° Northeast 223 257 9,300 850 Climbing Los Angeles Center
Mon 08:32:06 PM 34.2125 -118.6156 341° North 252 290 10,700 1,150 Climbing Los Angeles Center
Mon 08:33:06 PM 34.3033 -118.6536 340° North 304 350 11,600 1,500 Climbing Los Angeles Center
Mon 08:34:06 PM 34.4006 -118.6967 341° North 328 377 13,700 1,650 Climbing Los Angeles Center
Mon 08:35:06 PM 34.4917 -118.7347 341° North 352 405 14,900 700 Climbing Los Angeles Center
Mon 08:36:06 PM 34.5950 -118.7783 341° North 378 435 15,100 1,150 Climbing Los Angeles Center
Mon 08:37:06 PM 34.6964 -118.8219 339° North 388 447 17,200 1,850 Climbing Los Angeles Center
Mon 08:38:06 PM 34.8017 -118.8711 331° Northwest 393 452 18,800 1,650 Climbing Los Angeles Center
Mon 08:39:06 PM 34.9003 -118.9378 324° Northwest 400 460 20,500 1,650 Climbing Los Angeles Center
Mon 08:40:06 PM 34.9944 -119.0219 321° Northwest 407 468 22,100 1,600 Climbing Los Angeles Center
Mon 08:41:06 PM 35.0861 -119.1139 321° Northwest 419 482 23,700 1,450 Climbing Los Angeles Center
Mon 08:42:06 PM 35.1797 -119.2064 322° Northwest 426 490 25,000 1,300 Climbing Los Angeles Center
Mon 08:43:06 PM 35.2775 -119.2992 321° Northwest 438 504 26,300 1,150 Climbing Los Angeles Center
Mon 08:44:06 PM 35.3750 -119.3972 322° Northwest 449 517 27,300 983 Climbing Los Angeles Center
Mon 08:46:03 PM 35.5728 -119.5900 322° Northwest 465 535 29,200 983 Climbing Oakland Center
Mon 08:47:03 PM 35.6761 -119.6906 319° Northwest 472 543 30,200 1,150 Climbing Oakland Center
Mon 08:48:03 PM 35.7731 -119.7939 322° Northwest 472 543 31,500 900 Climbing Oakland Center
Mon 08:49:03 PM 35.8764 -119.8922 320° Northwest 472 543 32,000 250 Climbing Oakland Center
Mon 08:50:03 PM 35.9731 -119.9908 321° Northwest 467 537 32,000  Level Oakland Center
Mon 08:51:03 PM 36.0719 -120.0897 320° Northwest 461 531 32,000  Level Oakland Center
Mon 08:52:04 PM 36.1667 -120.1892 322° Northwest 461 531 32,000  Level Oakland Center
Mon 08:53:03 PM 36.2672 -120.2883 320° Northwest 461 531 32,000  Level Oakland Center
Mon 08:54:03 PM 36.3617 -120.3881 321° Northwest 456 525 32,000  Level Oakland Center
Mon 08:55:03 PM 36.4581 -120.4856 320° Northwest 451 519 32,000  Level Oakland Center
Mon 08:56:03 PM 36.5522 -120.5831 319° Northwest 451 519 32,000  Level Oakland Center
Mon 08:57:03 PM 36.6464 -120.6836 322° Northwest 451 519 32,000  Level Oakland Center
Mon 08:58:04 PM 36.7428 -120.7792 322° Northwest 451 519 32,000  Level Oakland Center
Mon 08:59:03 PM 36.8325 -120.8672 321° Northwest 441 507 32,000  Level Oakland Center
Mon 09:00:03 PM 36.9283 -120.9658 319° Northwest 434 499 32,000  Level Oakland Center
Mon 09:01:04 PM 37.0222 -121.0672 321° Northwest 429 494 32,000  Level Oakland Center
Mon 09:02:04 PM 37.1161 -121.1636 319° Northwest 434 499 32,000  Level Oakland Center
Mon 09:03:03 PM 37.2097 -121.2656 320° Northwest 434 499 32,000  Level Oakland Center
Mon 09:04:03 PM 37.3033 -121.3653 319° Northwest 434 499 32,000  Level Oakland Center
Mon 09:05:03 PM 37.4072 -121.4781 320° Northwest 439 505 32,000  Level Oakland Center
Mon 09:06:03 PM 37.5028 -121.5783 322° Northwest 439 505 32,000  Level Oakland Center
Mon 09:07:03 PM 37.5961 -121.6708 327° Northwest 439 505 32,000  Level Oakland Center
Mon 09:08:03 PM 37.6997 -121.7558 328° Northwest 439 505 32,000  Level Oakland Center
Mon 09:09:03 PM 37.8014 -121.8356 328° Northwest 439 505 32,000  Level Oakland Center
Mon 09:10:03 PM 37.8969 -121.9106 327° Northwest 439 505 32,000  Level Oakland Center
Mon 09:11:03 PM 38.0003 -121.9961 329° Northwest 444 511 32,000  Level Oakland Center
Mon 09:12:03 PM 38.1081 -122.0794 325° Northwest 444 511 32,000  Level Oakland Center
Mon 09:13:03 PM 38.2178 -122.1789 329° Northwest 444 511 32,000 350 Level Oakland Center
Mon 09:14:03 PM 38.3150 -122.2519 327° Northwest 444 511 32,700 950 Climbing Oakland Center
Mon 09:15:03 PM 38.4161 -122.3358 327° Northwest 444 511 33,900 650 Climbing Oakland Center
Mon 09:16:03 PM 38.5175 -122.4200 327° Northwest 439 505 34,000 50 Climbing Oakland Center
Mon 09:17:03 PM 38.6206 -122.5044 327° Northwest 434 499 34,000  Level Oakland Center
Mon 09:18:03 PM 38.7197 -122.5864 327° Northwest 434 499 34,000  Level Oakland Center
Mon 09:19:03 PM 38.8186 -122.6686 327° Northwest 434 499 34,000  Level Oakland Center
Mon 09:20:03 PM 38.9194 -122.7536 324° Northwest 434 499 34,000  Level Oakland Center
Mon 09:21:03 PM 39.0244 -122.8525 331° Northwest 434 499 34,000  Level Oakland Center
Mon 09:22:03 PM 39.1172 -122.9192 326° Northwest 434 499 34,000  Level Oakland Center
Mon 09:23:03 PM 39.2158 -123.0050 328° Northwest 429 494 34,000  Level Oakland Center
Mon 09:24:03 PM 39.3164 -123.0858 326° Northwest 429 494 34,000  Level Oakland Center
Mon 09:25:03 PM 39.4169 -123.1747 326° Northwest 429 494 34,000  Level Oakland Center
Mon 09:26:03 PM 39.5258 -123.2697 326° Northwest 434 499 34,000  Level Oakland Center
Mon 09:27:03 PM 39.6242 -123.3564 327° Northwest 434 499 34,000  Level Oakland Center
Mon 09:28:04 PM 39.7225 -123.4406 327° Northwest 434 499 34,000  Level Oakland Center
Mon 09:30:19 PM 39.9400 -123.6281 326° Northwest 425 489 34,000  Level Seattle Center
Mon 09:31:20 PM 40.0381 -123.7150 326° Northwest 426 490 34,000  Level Seattle Center
Mon 09:32:21 PM 40.1353 -123.7997 326° Northwest 424 488 34,000  Level Seattle Center
Mon 09:33:22 PM 40.2322 -123.8853 326° Northwest 423 487 34,000  Level Seattle Center
Mon 09:34:23 PM 40.3292 -123.9697 326° Northwest 422 486 34,000  Level Seattle Center
Mon 09:35:25 PM 40.4233 -124.0539 326° Northwest 415 478 34,000  Level Seattle Center
Mon 09:36:26 PM 40.5206 -124.1406 325° Northwest 420 483 34,000  Level Seattle Center
Mon 09:37:27 PM 40.6272 -124.2372 326° Northwest 418 481 34,000  Level Seattle Center
Mon 09:38:28 PM 40.7222 -124.3228 326° Northwest 415 478 34,000  Level Seattle Center
Mon 09:39:29 PM 40.8161 -124.4081 326° Northwest 414 476 34,000  Level Seattle Center
Mon 09:40:30 PM 40.9106 -124.4917 326° Northwest 411 473 34,000  Level Seattle Center
Mon 09:41:31 PM 41.0039 -124.5739 325° Northwest 406 467 34,000  Level Seattle Center
Mon 09:42:32 PM 41.0958 -124.6586 325° Northwest 404 465 34,000  Level Seattle Center
Mon 09:43:33 PM 41.1875 -124.7428 326° Northwest 402 463 34,000  Level Seattle Center
Mon 09:44:34 PM 41.2972 -124.8428 326° Northwest 400 460 34,000  Level Seattle Center
Mon 09:45:36 PM 41.3872 -124.9242 325° Northwest 396 456 34,000  Level Seattle Center
Mon 09:46:37 PM 41.4778 -125.0081 325° Northwest 396 456 34,000  Level Seattle Center
Mon 09:47:38 PM 41.5678 -125.0931 325° Northwest 396 456 34,000  Level Seattle Center
Mon 09:48:39 PM 41.6586 -125.1772 326° Northwest 397 457 34,000  Level Seattle Center
Mon 09:49:40 PM 41.7494 -125.2606 325° Northwest 397 457 34,000  Level Seattle Center
Mon 09:50:41 PM 41.8411 -125.3458 325° Northwest 399 459 34,000  Level Seattle Center
Mon 09:51:42 PM 41.9322 -125.4308 325° Northwest 400 460 34,000  Level Seattle Center
Mon 09:52:43 PM 42.0236 -125.5158 324° Northwest 399 459 34,000  Level Seattle Center
Mon 09:53:44 PM 42.1133 -125.6031 325° Northwest 398 458 34,000  Level Seattle Center
Mon 09:54:46 PM 42.2214 -125.7039 325° Northwest 395 455 34,000  Level Seattle Center
Mon 09:55:47 PM 42.3108 -125.7897 325° Northwest 395 455 34,000  Level Seattle Center
Mon 09:56:48 PM 42.4006 -125.8756 325° Northwest 395 455 34,000  Level Seattle Center
Mon 09:57:49 PM 42.4914 -125.9614 325° Northwest 396 456 34,000  Level Seattle Center
Mon 09:58:50 PM 42.5806 -126.0478 325° Northwest 396 456 34,000  Level Seattle Center
Mon 09:59:51 PM 42.6697 -126.1339 324° Northwest 394 453 34,000  Level Seattle Center
Mon 10:00:52 PM 42.7581 -126.2211 320° Northwest 394 453 34,000  Level Seattle Center
Mon 10:01:54 PM 42.8428 -126.3172 322° Northwest 389 448 34,000  Level Seattle Center
Mon 10:02:55 PM 42.9283 -126.4100 321° Northwest 391 450 34,000  Level Seattle Center
Mon 10:03:56 PM 43.0147 -126.5042 322° Northwest 393 452 34,000  Level Seattle Center
Mon 10:51:32 PM 47.0333 -131.2000 321° Northwest 393 452 34,000  Level Oakland Oceanic (ODAPS)
Mon 11:09:48 PM 48.6500 -133.1833 319° Northwest 410 472 34,000  Level Oakland Oceanic (ODAPS)
Mon 11:20:45 PM 49.6000 -134.4500 319° Northwest 422 486 34,000  Level Oakland Oceanic (ODAPS)
Mon 11:25:21 PM 50.0000 -135.0000 304° West 423 487 34,000  Level Oakland Oceanic (ODAPS)
Mon 11:33:15 PM 50.5358 -136.2480 303° West 423 487 34,000  Level FlightAware Transoceanic
Mon 11:34:15 PM 50.5998 -136.4012 303° West 423 487 34,000  Level FlightAware Transoceanic
Mon 11:35:15 PM 50.6636 -136.5547 303° West 423 487 34,000  Level FlightAware Transoceanic
Mon 11:36:15 PM 50.7272 -136.7088 303° West 423 487 34,000  Level FlightAware Transoceanic
Mon 11:37:15 PM 50.7907 -136.8632 303° West 423 487 34,000  Level FlightAware Transoceanic
Mon 11:38:15 PM 50.8539 -137.0181 303° West 423 487 34,000  Level FlightAware Transoceanic
Mon 11:39:15 PM 50.9169 -137.1733 303° West 423 487 34,000  Level FlightAware Transoceanic
Mon 11:40:15 PM 50.9797 -137.3290 303° West 423 487 34,000  Level FlightAware Transoceanic
Mon 11:41:15 PM 51.0423 -137.4852 302° West 423 487 34,000  Level FlightAware Transoceanic
Mon 11:42:15 PM 51.1047 -137.6417 302° West 423 487 34,000  Level FlightAware Transoceanic
Mon 11:43:15 PM 51.1669 -137.7986 302° West 423 487 34,000  Level FlightAware Transoceanic
Mon 11:44:15 PM 51.2288 -137.9560 302° West 423 487 34,000  Level FlightAware Transoceanic
Mon 11:45:15 PM 51.2906 -138.1138 302° West 423 487 34,000  Level FlightAware Transoceanic
Mon 11:46:15 PM 51.3521 -138.2721 302° West 423 487 34,000  Level FlightAware Transoceanic
Mon 11:47:15 PM 51.4135 -138.4307 302° West 423 487 34,000  Level FlightAware Transoceanic
Mon 11:48:15 PM 51.4746 -138.5898 302° West 423 487 34,000  Level FlightAware Transoceanic
Mon 11:49:15 PM 51.5355 -138.7493 301° West 423 487 34,000  Level FlightAware Transoceanic
Mon 11:50:15 PM 51.5961 -138.9093 301° West 423 487 34,000  Level FlightAware Transoceanic
Mon 11:51:15 PM 51.6566 -139.0696 301° West 423 487 34,000  Level FlightAware Transoceanic
Mon 11:52:15 PM 51.7169 -139.2304 301° West 423 487 34,000  Level FlightAware Transoceanic
Mon 11:53:15 PM 51.7769 -139.3916 301° West 423 487 34,000  Level FlightAware Transoceanic
Mon 11:54:15 PM 51.8367 -139.5533 301° West 423 487 34,000  Level FlightAware Transoceanic
Mon 11:55:15 PM 51.8963 -139.7153 301° West 423 487 34,000  Level FlightAware Transoceanic
Mon 11:56:15 PM 51.9556 -139.8778 301° West 423 487 34,000  Level FlightAware Transoceanic
Mon 11:57:15 PM 52.0157 -140.0430 301° West 423 487 34,000  Level FlightAware Transoceanic
Mon 11:58:15 PM 52.0785 -140.2154 301° West 423 487 34,000  Level FlightAware Transoceanic
Mon 11:59:15 PM 52.1410 -140.3883 300° West 423 487 34,000  Level FlightAware Transoceanic
Tue 12:00:15 AM 52.2033 -140.5617 300° West 423 487 34,000  Level FlightAware Transoceanic
Tue 12:01:15 AM 52.2653 -140.7355 300° West 423 487 34,000  Level FlightAware Transoceanic
Tue 12:02:15 AM 52.3270 -140.9099 300° West 423 487 34,000  Level FlightAware Transoceanic
Tue 12:03:15 AM 52.3885 -141.0847 300° West 423 487 34,000  Level FlightAware Transoceanic
Tue 12:04:15 AM 52.4498 -141.2600 300° West 423 487 34,000  Level FlightAware Transoceanic
Tue 12:05:15 AM 52.5107 -141.4358 300° West 423 487 34,000  Level FlightAware Transoceanic
Tue 12:06:15 AM 52.5715 -141.6121 299° West 423 487 34,000  Level FlightAware Transoceanic
Tue 12:07:15 AM 52.6319 -141.7889 299° West 423 487 34,000  Level FlightAware Transoceanic
Tue 12:08:15 AM 52.6921 -141.9662 299° West 423 487 34,000  Level FlightAware Transoceanic
Tue 12:09:15 AM 52.7520 -142.1439 299° West 423 487 34,000  Level FlightAware Transoceanic
Tue 12:10:15 AM 52.8117 -142.3222 299° West 423 487 34,000  Level FlightAware Transoceanic
Tue 12:11:15 AM 52.8711 -142.5009 299° West 423 487 34,000  Level FlightAware Transoceanic
Tue 12:12:15 AM 52.9302 -142.6801 299° West 423 487 34,000  Level FlightAware Transoceanic
Tue 12:13:15 AM 52.9891 -142.8598 298° West 423 487 34,000  Level FlightAware Transoceanic
Tue 12:14:15 AM 53.0476 -143.0400 298° West 423 487 34,000  Level FlightAware Transoceanic
Tue 12:15:15 AM 53.1059 -143.2207 298° West 423 487 34,000  Level FlightAware Transoceanic
Tue 12:16:15 AM 53.1640 -143.4019 298° West 423 487 34,000  Level FlightAware Transoceanic
Tue 12:17:15 AM 53.2217 -143.5836 298° West 423 487 34,000  Level FlightAware Transoceanic
Tue 12:18:15 AM 53.2792 -143.7657 298° West 423 487 34,000  Level FlightAware Transoceanic
Tue 12:19:15 AM 53.3364 -143.9484 298° West 423 487 34,000  Level FlightAware Transoceanic
Tue 12:20:15 AM 53.3933 -144.1315 297° West 423 487 34,000  Level FlightAware Transoceanic
Tue 12:21:15 AM 53.4500 -144.3151 297° West 423 487 34,000  Level FlightAware Transoceanic
Tue 12:22:15 AM 53.5063 -144.4992 297° West 423 487 34,000  Level FlightAware Transoceanic
Tue 12:23:15 AM 53.5624 -144.6838 297° West 423 487 34,000  Level FlightAware Transoceanic
Tue 12:24:15 AM 53.6182 -144.8689 297° West 423 487 34,000  Level FlightAware Transoceanic
Tue 12:25:15 AM 53.6737 -145.0545 297° West 423 487 34,000  Level FlightAware Transoceanic
Tue 12:26:15 AM 53.7289 -145.2406 297° West 423 487 34,000  Level FlightAware Transoceanic
Tue 12:27:15 AM 53.7838 -145.4271 296° West 423 487 34,000  Level FlightAware Transoceanic
Tue 12:28:15 AM 53.8385 -145.6142 296° West 423 487 34,000  Level FlightAware Transoceanic
Tue 12:29:15 AM 53.8928 -145.8017 296° West 423 487 34,000  Level FlightAware Transoceanic
Tue 12:30:15 AM 53.9468 -145.9897 296° West 423 487 34,000  Level FlightAware Transoceanic
Tue 12:31:15 AM 54.0006 -146.1782 296° West 423 487 34,000  Level FlightAware Transoceanic
Tue 12:32:15 AM 54.0541 -146.3672 296° West 423 487 34,000  Level FlightAware Transoceanic
Tue 12:33:15 AM 54.1072 -146.5567 295° West 423 487 34,000  Level FlightAware Transoceanic
Tue 12:34:15 AM 54.1601 -146.7467 295° West 423 487 34,000  Level FlightAware Transoceanic
Tue 12:35:15 AM 54.2127 -146.9371 295° West 423 487 34,000  Level FlightAware Transoceanic
Tue 12:36:15 AM 54.2649 -147.1281 295° West 423 487 34,000  Level FlightAware Transoceanic
Tue 12:37:15 AM 54.3169 -147.3195 295° West 423 487 34,000  Level FlightAware Transoceanic
Tue 12:38:15 AM 54.3685 -147.5114 295° West 423 487 34,000  Level FlightAware Transoceanic
Tue 12:39:15 AM 54.4199 -147.7037 295° West 423 487 34,000  Level FlightAware Transoceanic
Tue 12:40:15 AM 54.4710 -147.8966 294° West 423 487 34,000  Level FlightAware Transoceanic
Tue 12:41:15 AM 54.5217 -148.0899 294° West 423 487 34,000  Level FlightAware Transoceanic
Tue 12:42:15 AM 54.5721 -148.2838 294° West 423 487 34,000  Level FlightAware Transoceanic
Tue 12:43:15 AM 54.6222 -148.4781 114° Southeast 423 487 34,000  Level FlightAware Transoceanic
Tue 12:43:54 AM 52.0000 -140.0000 301° West 444 511 34,000  Level Oakland Oceanic (ODAPS)
Tue 12:53:11 AM 55.0000 -150.0000 360° North 456 525 34,000  Level Oakland Oceanic (ODAPS)
Tue 01:12:55 AM 55.0000 -150.0000 277° West 456 525 34,000  Level Oakland Oceanic (ODAPS)
Tue 01:21:37 AM 55.3000 -156.6667 270° West 440 506 34,000  Level Anchorage Center
Tue 01:22:38 AM 55.3000 -156.8833 270° West 440 506 34,000  Level Anchorage Center
Tue 01:23:38 AM 55.3000 -157.0667 276° West 450 518 34,000  Level Anchorage Center
Tue 01:24:38 AM 55.3167 -157.3333 270° West 460 529 34,000  Level Anchorage Center
Tue 01:25:38 AM 55.3167 -157.5667 270° West 450 518 34,000  Level Anchorage Center
Tue 01:26:39 AM 55.3167 -157.7833 270° West 450 518 34,000  Level Anchorage Center
Tue 01:27:39 AM 55.3167 -158.0167 270° West 450 518 34,000  Level Anchorage Center
Tue 01:28:39 AM 55.3167 -158.2167 270° West 460 529 34,000  Level Anchorage Center
Tue 01:29:40 AM 55.3167 -158.4333 270° West 460 529 34,000  Level Anchorage Center
Tue 01:30:40 AM 55.3167 -158.6667 270° West 460 529 34,000  Level Anchorage Center
Tue 01:31:41 AM 55.3167 -158.8833 270° West 450 518 34,000  Level Anchorage Center
Tue 01:32:41 AM 55.3167 -159.1167 270° West 460 529 34,000  Level Anchorage Center
Tue 01:33:41 AM 55.3167 -159.3500 270° West 450 518 34,000  Level Anchorage Center
Tue 01:34:42 AM 55.3167 -159.5667 270° West 450 518 34,000  Level Anchorage Center
Tue 01:35:42 AM 55.3167 -159.8000 270° West 460 529 34,000  Level Anchorage Center
Tue 01:36:42 AM 55.3167 -160.0333 270° West 460 529 34,000  Level Anchorage Center
Tue 01:37:42 AM 55.3167 -160.2500 270° West 450 518 34,000 50 Level Anchorage Center
Tue 01:38:43 AM 55.3167 -160.4667 263° West 460 529 34,100 595 Climbing Anchorage Center
Tue 01:39:43 AM 55.3000 -160.7000 270° West 460 529 35,200 950 Climbing Anchorage Center
Tue 01:40:43 AM 55.3000 -160.9167 270° West 450 518 36,000 397 Climbing Anchorage Center
Tue 01:41:44 AM 55.3000 -161.1500 270° West 450 518 36,000  Level Anchorage Center
Tue 01:42:44 AM 55.3000 -161.3667 264° West 460 529 36,000  Level Anchorage Center
Tue 01:43:44 AM 55.2833 -161.6333 270° West 450 518 36,000  Level Anchorage Center
Tue 01:44:45 AM 55.2833 -161.8667 270° West 450 518 36,000  Level Anchorage Center
Tue 01:45:45 AM 55.2833 -162.0833 263° West 450 518 36,000  Level Anchorage Center
Tue 01:46:45 AM 55.2667 -162.3167 270° West 460 529 36,000  Level Anchorage Center
Tue 01:47:46 AM 55.2667 -162.5333 270° West 450 518 36,000  Level Anchorage Center
Tue 01:48:46 AM 55.2667 -162.7667 270° West 460 529 36,000  Level Anchorage Center
Tue 01:49:46 AM 55.2667 -162.9833 270° West 450 518 36,000  Level Anchorage Center
Tue 01:50:46 AM 55.2667 -163.2167 270° West 450 518 36,000  Level Anchorage Center
Tue 01:51:47 AM 55.2667 -163.4333 277° West 450 518 36,000  Level Anchorage Center
Tue 01:52:47 AM 55.2833 -163.6667 270° West 460 529 36,000  Level Anchorage Center
Tue 01:53:48 AM 55.2833 -163.8667 270° West 440 506 36,000  Level Anchorage Center
Tue 01:54:48 AM 55.2833 -164.1167 270° West 470 541 36,000  Level Anchorage Center
Tue 01:55:48 AM 55.2833 -164.3333 270° West 460 529 36,000  Level Anchorage Center
Tue 01:56:49 AM 55.2833 -164.5667 270° West 460 529 36,000  Level Anchorage Center
Tue 01:57:49 AM 55.2833 -164.7667 270° West 480 552 36,000  Level Anchorage Center
Tue 01:58:49 AM 55.2833 -164.9833 277° West 450 518 36,000  Level Anchorage Center
Tue 01:59:50 AM 55.3000 -165.2167 263° West 460 529 36,000  Level Anchorage Center
Tue 02:00:50 AM 55.2833 -165.4500 270° West 470 541 36,000  Level Anchorage Center
Tue 02:01:51 AM 55.2833 -165.6667 270° West 460 529 36,000  Level Anchorage Center
Tue 02:04:18 AM 55.2833 -166.2667 270° West 460 529 36,000  Level Anchorage Center
Tue 02:05:17 AM 55.2833 -166.5000 270° West 480 552 36,000  Level Anchorage Center
Tue 02:06:18 AM 55.2833 -166.7167 270° West 460 529 36,000  Level Anchorage Center
Tue 02:07:18 AM 55.2833 -166.9500 270° West 480 552 36,000  Level Anchorage Center
Tue 02:08:18 AM 55.2833 -167.1333 263° West 470 541 36,000  Level Anchorage Center
Tue 02:09:18 AM 55.2667 -167.3667 270° West 470 541 36,000  Level Anchorage Center
Tue 02:10:18 AM 55.2667 -167.6000 270° West 470 541 36,000  Level Anchorage Center
Tue 02:11:18 AM 55.2667 -167.8333 270° West 470 541 36,000  Level Anchorage Center
Tue 02:12:18 AM 55.2667 -168.0667 263° West 450 518 36,000  Level Anchorage Center
Tue 02:13:18 AM 55.2500 -168.3000 270° West 470 541 36,000  Level Anchorage Center
Tue 02:14:18 AM 55.2500 -168.5333 262° West 470 541 36,000  Level Anchorage Center
Tue 02:15:18 AM 55.2333 -168.7500 270° West 460 529 36,000  Level Anchorage Center
Tue 02:16:18 AM 55.2333 -168.9667 270° West 440 506 36,000  Level Anchorage Center
Tue 02:17:18 AM 55.2333 -169.2000 263° West 460 529 36,000  Level Anchorage Center
Tue 02:18:18 AM 55.2167 -169.4333 270° West 460 529 36,000  Level Anchorage Center
Tue 02:19:18 AM 55.2167 -169.6500 262° West 440 506 36,000  Level Anchorage Center
Tue 02:20:18 AM 55.2000 -169.8667 270° West 450 518 36,000  Level Anchorage Center
Tue 02:21:19 AM 55.2000 -170.0833 262° West 430 495 36,000  Level Anchorage Center
Tue 02:22:19 AM 55.1833 -170.2833 270° West 420 483 36,000  Level Anchorage Center
Tue 02:23:18 AM 55.1833 -170.5000 262° West 430 495 36,000  Level Anchorage Center
Tue 02:24:19 AM 55.1667 -170.7000 270° West 430 495 36,000  Level Anchorage Center
Tue 02:25:19 AM 55.1667 -170.9333 262° West 450 518 36,000  Level Anchorage Center
Tue 02:26:19 AM 55.1500 -171.1333 262° West 420 483 36,000  Level Anchorage Center
Tue 02:27:19 AM 55.1333 -171.3500 270° West 440 506 36,000  Level Anchorage Center
Tue 02:28:19 AM 55.1333 -171.5833 262° West 460 529 36,000  Level Anchorage Center
Tue 02:29:19 AM 55.1167 -171.8000 270° West 450 518 36,000  Level Anchorage Center
Tue 02:30:19 AM 55.1167 -172.0167 262° West 440 506 36,000  Level Anchorage Center
Tue 02:31:19 AM 55.1000 -172.2333 262° West 440 506 36,000  Level Anchorage Center
Tue 02:32:19 AM 55.0833 -172.4500 262° West 450 518 36,000  Level Anchorage Center
Tue 02:33:19 AM 55.0667 -172.6500 270° West 440 506 36,000  Level Anchorage Center
Tue 02:34:19 AM 55.0667 -172.8667 262° West 430 495 36,000  Level Anchorage Center
Tue 02:35:19 AM 55.0500 -173.0833 262° West 430 495 36,000  Level Anchorage Center
Tue 02:36:19 AM 55.0333 -173.2833 262° West 430 495 36,000  Level Anchorage Center
Tue 02:37:19 AM 55.0167 -173.5000 262° West 430 495 36,000  Level Anchorage Center
Tue 02:38:19 AM 55.0000 -173.7167 262° West 440 506 36,000  Level Anchorage Center
Tue 02:39:19 AM 54.9833 -173.9167 270° West 430 495 36,000  Level Anchorage Center
Tue 02:40:20 AM 54.9833 -174.1333 262° West 430 495 36,000  Level Anchorage Center
Tue 02:41:20 AM 54.9667 -174.3333 262° West 430 495 36,000  Level Anchorage Center
Tue 02:42:20 AM 54.9500 -174.5333 262° West 420 483 36,000  Level Anchorage Center
Tue 02:43:20 AM 54.9333 -174.7333 262° West 420 483 36,000  Level Anchorage Center
Tue 02:44:20 AM 54.9167 -174.9500 262° West 420 483 36,000  Level Anchorage Center
Tue 02:45:20 AM 54.9000 -175.1500 262° West 420 483 36,000  Level Anchorage Center
Tue 02:46:20 AM 54.8833 -175.3500 262° West 430 495 36,000  Level Anchorage Center
Tue 02:47:20 AM 54.8667 -175.5667 262° West 420 483 36,000  Level Anchorage Center
Tue 02:48:20 AM 54.8500 -175.7667 262° West 420 483 36,000  Level Anchorage Center
Tue 02:49:20 AM 54.8333 -175.9667 262° West 420 483 36,000  Level Anchorage Center
Tue 02:50:20 AM 54.8167 -176.1667 262° West 430 495 36,000  Level Anchorage Center
Tue 02:57:49 AM 54.6833 -177.7167 262° West 434 499 36,000  Level Anchorage Center
Tue 02:59:57 AM 54.6500 -178.1167 260° West 434 499 36,000  Level Anchorage Center
Tue 03:15:37 AM 54.2667 178.6667 263° West 440 506 36,000  Level Anchorage Center
Tue 03:16:37 AM 54.2500 178.4500 251° West 430 495 36,000  Level Anchorage Center
Tue 03:17:37 AM 54.2167 178.2833 256° West 430 495 36,000  Level Anchorage Center
Tue 03:18:37 AM 54.1833 178.0500 260° West 430 495 36,000  Level Anchorage Center
Tue 03:19:37 AM 54.1667 177.8833 255° West 440 506 36,000  Level Anchorage Center
Tue 03:20:37 AM 54.1333 177.6667 255° West 440 506 36,000  Level Anchorage Center
Tue 03:21:37 AM 54.1000 177.4500 261° West 430 495 36,000  Level Anchorage Center
Tue 03:22:37 AM 54.0833 177.2667 255° West 430 495 36,000  Level Anchorage Center
Tue 03:23:37 AM 54.0500 177.0500 251° West 430 495 36,000  Level Anchorage Center
Tue 03:24:37 AM 54.0167 176.8833 263° West 440 506 36,000  Level Anchorage Center
Tue 03:25:37 AM 54.0000 176.6500 251° West 440 506 36,000  Level Anchorage Center
Tue 03:26:37 AM 53.9667 176.4833 255° West 440 506 36,000 350 Level Anchorage Center
Tue 03:27:37 AM 53.9333 176.2667 253° West 430 495 36,700 645 Climbing Anchorage Center
Tue 03:28:38 AM 53.9000 176.0833 255° West 440 506 37,300 650 Climbing Anchorage Center
Tue 03:29:37 AM 53.8667 175.8667 263° West 430 495 38,000 353 Climbing Anchorage Center
Tue 03:30:37 AM 53.8500 175.6500 251° West 440 506 38,000  Level Anchorage Center
Tue 03:31:38 AM 53.8167 175.4833 255° West 430 495 38,000  Level Anchorage Center
Tue 03:32:38 AM 53.7833 175.2667 251° West 430 495 38,000  Level Anchorage Center
Tue 03:33:38 AM 53.7500 175.1000 256° West 430 495 38,000  Level Anchorage Center
Tue 03:34:38 AM 53.7167 174.8833 251° West 450 518 38,000  Level Anchorage Center
Tue 03:35:38 AM 53.6833 174.7167 256° West 430 495 38,000  Level Anchorage Center
Tue 03:36:38 AM 53.6500 174.5000 256° West 430 495 38,000  Level Anchorage Center
Tue 03:37:38 AM 53.6167 174.2833 253° West 440 506 38,000  Level Anchorage Center
Tue 03:38:38 AM 53.5833 174.1000 256° West 440 506 38,000  Level Anchorage Center
Tue 03:39:38 AM 53.5500 173.8833 251° West 440 506 38,000  Level Anchorage Center
Tue 03:40:38 AM 53.5167 173.7167 256° West 440 506 38,000  Level Anchorage Center
Tue 03:41:38 AM 53.4833 173.5000 251° West 440 506 38,000  Level Anchorage Center
Tue 03:42:38 AM 53.4500 173.3333 249° West 450 518 38,000  Level Anchorage Center
Tue 03:43:39 AM 53.4000 173.1167 254° West 440 506 38,000  Level Anchorage Center
Tue 03:44:39 AM 53.3667 172.9167 243° Southwest 440 506 38,000  Level Anchorage Center
Tue 03:45:38 AM 53.3167 172.7500 256° West 440 506 38,000  Level Anchorage Center
Tue 03:46:39 AM 53.2833 172.5333 243° Southwest 440 506 38,000  Level Anchorage Center
Tue 03:47:39 AM 53.2333 172.3667 247° West 440 506 38,000  Level Anchorage Center
Tue 03:48:39 AM 53.1833 172.1667 252° West 430 495 38,000  Level Anchorage Center
Tue 03:49:39 AM 53.1500 172.0000 255° West 430 495 38,000  Level Anchorage Center
Tue 03:50:39 AM 53.1167 171.8000 247° West 430 495 38,000  Level Anchorage Center
Tue 03:51:39 AM 53.0667 171.6000 244° Southwest 440 506 38,000  Level Anchorage Center
Tue 03:52:39 AM 53.0167 171.4333 248° West 450 518 38,000  Level Anchorage Center
Tue 03:53:39 AM 52.9667 171.2333 252° West 430 495 38,000  Level Anchorage Center
Tue 03:54:39 AM 52.9333 171.0667 248° West 430 495 38,000  Level Anchorage Center
Tue 03:55:39 AM 52.8833 170.8667 252° West 430 495 38,000  Level Anchorage Center
Tue 03:56:39 AM 52.8500 170.7000 248° West 430 495 38,000  Level Anchorage Center
Tue 03:57:39 AM 52.8000 170.5000 241° Southwest 440 506 38,000  Level Anchorage Center
Tue 03:58:39 AM 52.7500 170.3500 248° West 430 495 38,000  Level Anchorage Center
Tue 03:59:39 AM 52.7000 170.1500 255° West 440 506 38,000  Level Anchorage Center
Tue 04:00:39 AM 52.6667 169.9500 244° Southwest 430 495 38,000  Level Anchorage Center
Tue 04:01:39 AM 52.6167 169.7833 248° West 440 506 38,000  Level Anchorage Center
Tue 04:02:39 AM 52.5667 169.5833 250° West 440 506 38,000  Level Anchorage Center
Tue 04:03:40 AM 52.5333 169.4333 248° West 420 483 38,000  Level Anchorage Center
Tue 04:04:40 AM 52.4833 169.2333 250° West 420 483 38,000  Level Anchorage Center
Tue 04:05:39 AM 52.4500 169.0833 246° West 410 472 38,000  Level Anchorage Center
Tue 04:06:40 AM 52.4000 168.9000 241° Southwest 420 483 38,000  Level Anchorage Center
Tue 04:07:40 AM 52.3500 168.7500 246° West 420 483 38,000  Level Anchorage Center
Tue 04:08:40 AM 52.3000 168.5667 244° Southwest 420 483 38,000  Level Anchorage Center
Tue 04:10:40 AM 52.2000 168.2333 254° West 430 495 38,000  Level Anchorage Center
Tue 04:11:40 AM 52.1667 168.0500 239° Southwest 420 483 38,000  Level Anchorage Center
Tue 04:12:40 AM 52.1167 167.9167 246° West 430 495 38,000  Level Anchorage Center
Tue 04:13:40 AM 52.0667 167.7333 250° West 410 472 38,000  Level Anchorage Center
Tue 04:14:40 AM 52.0333 167.5833 242° Southwest 410 472 38,000  Level Anchorage Center
Tue 04:15:40 AM 51.9833 167.4333 241° Southwest 400 460 38,000  Level Anchorage Center
Tue 04:23:15 AM 51.5300 166.1482 240° Southwest  Level FlightAware Approximate
Tue 04:24:15 AM 51.4692 165.9807 240° Southwest  Level FlightAware Approximate
Tue 04:25:15 AM 51.4081 165.8136 240° Southwest  Level FlightAware Approximate
Tue 04:26:15 AM 51.3468 165.6469 239° Southwest  Level FlightAware Approximate
Tue 04:27:15 AM 51.2846 165.4814 239° Southwest  Level FlightAware Approximate
Tue 04:28:15 AM 51.2221 165.3163 239° Southwest  Level FlightAware Approximate
Tue 04:29:15 AM 51.1594 165.1516 239° Southwest  Level FlightAware Approximate
Tue 04:30:15 AM 51.0965 164.9874 239° Southwest  Level FlightAware Approximate
Tue 04:31:15 AM 51.0334 164.8237 238° Southwest  Level FlightAware Approximate
Tue 04:32:15 AM 50.9700 164.6604 238° Southwest  Level FlightAware Approximate
Tue 04:33:15 AM 50.9064 164.4975 238° Southwest  Level FlightAware Approximate
Tue 04:34:15 AM 50.8417 164.3360 238° Southwest  Level FlightAware Approximate
Tue 04:35:15 AM 50.7768 164.1749 237° Southwest  Level FlightAware Approximate
Tue 04:36:15 AM 50.7116 164.0143 237° Southwest  Level FlightAware Approximate
Tue 04:37:15 AM 50.6462 163.8541 237° Southwest  Level FlightAware Approximate
Tue 04:38:15 AM 50.5806 163.6943 237° Southwest  Level FlightAware Approximate
Tue 04:39:15 AM 50.5148 163.5350 237° Southwest  Level FlightAware Approximate
Tue 04:40:15 AM 50.4488 163.3762 237° Southwest  Level FlightAware Approximate
Tue 04:41:15 AM 50.3825 163.2178 237° Southwest  Level FlightAware Approximate
Tue 04:42:15 AM 50.3161 163.0598 237° Southwest  Level FlightAware Approximate
Tue 04:43:15 AM 50.2494 162.9023 236° Southwest  Level FlightAware Approximate
Tue 04:44:15 AM 50.1825 162.7452 236° Southwest  Level FlightAware Approximate
Tue 04:45:15 AM 50.1154 162.5886 236° Southwest  Level FlightAware Approximate
Tue 04:46:15 AM 50.0481 162.4324 236° Southwest  Level FlightAware Approximate
Tue 04:47:15 AM 49.9805 162.2766 236° Southwest  Level FlightAware Approximate
Tue 04:48:15 AM 49.9128 162.1213 236° Southwest  Level FlightAware Approximate
Tue 04:49:15 AM 49.8449 161.9664 236° Southwest  Level FlightAware Approximate
Tue 04:50:15 AM 49.7767 161.8120 236° Southwest  Level FlightAware Approximate
Tue 04:51:15 AM 49.7084 161.6579 235° Southwest  Level FlightAware Approximate
Tue 04:52:15 AM 49.6398 161.5043 235° Southwest  Level FlightAware Approximate
Tue 04:53:15 AM 49.5711 161.3512 235° Southwest  Level FlightAware Approximate
Tue 04:54:15 AM 49.5021 161.1985 258° West  Level FlightAware Approximate
Tue 04:55:15 AM 49.4763 161.0186 234° Southwest  Level FlightAware Approximate
Tue 04:56:15 AM 49.4054 160.8683 234° Southwest  Level FlightAware Approximate
Tue 04:57:15 AM 49.3344 160.7185 234° Southwest  Level FlightAware Approximate
Tue 04:58:15 AM 49.2631 160.5690 234° Southwest  Level FlightAware Approximate
Tue 04:59:15 AM 49.1916 160.4200 234° Southwest  Level FlightAware Approximate
Tue 05:00:15 AM 49.1198 160.2712 234° Southwest  Level FlightAware Approximate
Tue 05:01:15 AM 49.0478 160.1229 232° Southwest  Level FlightAware Approximate
Tue 05:02:15 AM 48.9748 159.9825 233° Southwest  Level FlightAware Approximate
Tue 05:03:15 AM 48.9023 159.8351 233° Southwest  Level FlightAware Approximate
Tue 05:04:15 AM 48.8296 159.6882 233° Southwest  Level FlightAware Approximate
Tue 05:05:15 AM 48.7568 159.5417 233° Southwest  Level FlightAware Approximate
Tue 05:06:15 AM 48.6837 159.3957 233° Southwest  Level FlightAware Approximate
Tue 05:07:15 AM 48.6105 159.2500 233° Southwest  Level FlightAware Approximate
Tue 05:08:15 AM 48.5371 159.1048 233° Southwest  Level FlightAware Approximate
Tue 05:09:15 AM 48.4635 158.9600 232° Southwest  Level FlightAware Approximate
Tue 05:10:15 AM 48.3897 158.8157 232° Southwest  Level FlightAware Approximate
Tue 05:11:15 AM 48.3158 158.6717 232° Southwest  Level FlightAware Approximate
Tue 05:12:15 AM 48.2416 158.5282 232° Southwest  Level FlightAware Approximate
Tue 05:13:15 AM 48.1673 158.3850 232° Southwest  Level FlightAware Approximate
Tue 05:14:15 AM 48.0928 158.2423 234° Southwest  Level FlightAware Approximate
Tue 05:15:15 AM 48.0223 158.0954 232° Southwest  Level FlightAware Approximate
Tue 05:16:15 AM 47.9473 157.9537 232° Southwest  Level FlightAware Approximate
Tue 05:17:15 AM 47.8722 157.8123 232° Southwest  Level FlightAware Approximate
Tue 05:18:15 AM 47.7969 157.6714 231° Southwest  Level FlightAware Approximate
Tue 05:19:15 AM 47.7214 157.5309 231° Southwest  Level FlightAware Approximate
Tue 05:20:15 AM 47.6457 157.3908 231° Southwest  Level FlightAware Approximate
Tue 05:21:15 AM 47.5699 157.2511 234° Southwest  Level FlightAware Approximate
Tue 05:22:15 AM 47.4989 157.1067 231° Southwest  Level FlightAware Approximate
Tue 05:23:15 AM 47.4225 156.9680 231° Southwest  Level FlightAware Approximate
Tue 05:24:15 AM 47.3459 156.8298 231° Southwest  Level FlightAware Approximate
Tue 05:25:15 AM 47.2692 156.6920 231° Southwest  Level FlightAware Approximate
Tue 05:26:15 AM 47.1923 156.5546 230° Southwest  Level FlightAware Approximate
Tue 05:27:15 AM 47.1152 156.4176 231° Southwest  Level FlightAware Approximate
Tue 05:28:15 AM 47.0387 156.2801 230° Southwest  Level FlightAware Approximate
Tue 05:29:15 AM 46.9613 156.1439 230° Southwest  Level FlightAware Approximate
Tue 05:30:15 AM 46.8837 156.0080 230° Southwest  Level FlightAware Approximate
Tue 05:31:15 AM 46.8060 155.8726 230° Southwest  Level FlightAware Approximate
Tue 05:32:15 AM 46.7281 155.7376 230° Southwest  Level FlightAware Approximate
Tue 05:33:15 AM 46.6501 155.6029 230° Southwest  Level FlightAware Approximate
Tue 05:34:15 AM 46.5719 155.4687 230° Southwest  Level FlightAware Approximate
Tue 05:35:15 AM 46.4935 155.3348 230° Southwest  Level FlightAware Approximate
Tue 05:36:15 AM 46.4150 155.2013 229° Southwest  Level FlightAware Approximate
Tue 05:37:15 AM 46.3363 155.0682 229° Southwest  Level FlightAware Approximate
Tue 05:38:15 AM 46.2575 154.9355 229° Southwest  Level FlightAware Approximate
Tue 05:39:15 AM 46.1786 154.8031 229° Southwest  Level FlightAware Approximate
Tue 05:40:15 AM 46.0994 154.6712 229° Southwest  Level FlightAware Approximate
Tue 05:41:15 AM 46.0201 154.5396 229° Southwest  Level FlightAware Approximate
Tue 05:42:15 AM 45.9407 154.4084 229° Southwest  Level FlightAware Approximate
Tue 05:43:15 AM 45.8611 154.2776 229° Southwest  Level FlightAware Approximate
Tue 05:44:15 AM 45.7814 154.1471 229° Southwest  Level FlightAware Approximate
Tue 05:45:15 AM 45.7015 154.0171 229° Southwest  Level FlightAware Approximate
Tue 05:46:15 AM 45.6215 153.8873 229° Southwest  Level FlightAware Approximate
Tue 05:47:15 AM 45.5413 153.7580 229° Southwest  Level FlightAware Approximate
Tue 05:48:15 AM 45.4616 153.6283 228° Southwest  Level FlightAware Approximate
Tue 05:49:15 AM 45.3807 153.5002 228° Southwest  Level FlightAware Approximate
Tue 05:50:15 AM 45.2997 153.3725 228° Southwest  Level FlightAware Approximate
Tue 05:51:15 AM 45.2186 153.2451 228° Southwest  Level FlightAware Approximate
Tue 05:52:15 AM 45.1373 153.1181 228° Southwest  Level FlightAware Approximate
Tue 05:53:15 AM 45.0559 152.9915 228° Southwest  Level FlightAware Approximate
Tue 05:54:15 AM 44.9743 152.8652 228° Southwest  Level FlightAware Approximate
Tue 05:55:15 AM 44.8926 152.7393 227° Southwest  Level FlightAware Approximate
Tue 05:56:15 AM 44.8108 152.6137 227° Southwest  Level FlightAware Approximate
Tue 05:57:15 AM 44.7288 152.4885 227° Southwest  Level FlightAware Approximate
Tue 05:58:15 AM 44.6467 152.3636 227° Southwest  Level FlightAware Approximate
Tue 05:59:15 AM 44.5645 152.2392 227° Southwest  Level FlightAware Approximate
Tue 06:00:15 AM 44.4821 152.1150 227° Southwest  Level FlightAware Approximate
Tue 06:01:15 AM 44.3996 151.9912 227° Southwest  Level FlightAware Approximate
Tue 06:02:15 AM 44.3169 151.8678 227° Southwest  Level FlightAware Approximate
Tue 06:03:15 AM 44.2341 151.7447 227° Southwest  Level FlightAware Approximate
Tue 06:04:15 AM 44.1512 151.6219 227° Southwest  Level FlightAware Approximate
Tue 06:05:15 AM 44.0682 151.4995 227° Southwest  Level FlightAware Approximate
Tue 06:06:15 AM 43.9850 151.3774 226° Southwest  Level FlightAware Approximate
Tue 06:07:15 AM 43.9017 151.2557 226° Southwest  Level FlightAware Approximate
Tue 06:08:15 AM 43.8182 151.1343 226° Southwest  Level FlightAware Approximate
Tue 06:09:15 AM 43.7347 151.0133 226° Southwest  Level FlightAware Approximate
Tue 06:10:15 AM 43.6510 150.8926 226° Southwest  Level FlightAware Approximate
Tue 06:11:15 AM 43.5672 150.7722 226° Southwest  Level FlightAware Approximate
Tue 06:12:15 AM 43.4832 150.6521 226° Southwest  Level FlightAware Approximate
Tue 06:13:15 AM 43.3992 150.5324 226° Southwest  Level FlightAware Approximate
Tue 06:14:15 AM 43.3150 150.4131 226° Southwest  Level FlightAware Approximate
Tue 06:15:15 AM 43.2307 150.2940 226° Southwest  Level FlightAware Approximate
Tue 06:16:15 AM 43.1462 150.1753 226° Southwest  Level FlightAware Approximate
Tue 06:17:15 AM 43.0617 150.0569 226° Southwest  Level FlightAware Approximate
Tue 06:18:15 AM 42.9770 149.9389 226° Southwest  Level FlightAware Approximate
Tue 06:19:15 AM 42.8922 149.8212 225° Southwest  Level FlightAware Approximate
Tue 06:20:15 AM 42.8073 149.7037 225° Southwest  Level FlightAware Approximate
Tue 06:21:15 AM 42.7222 149.5867 225° Southwest  Level FlightAware Approximate
Tue 06:22:15 AM 42.6371 149.4699 225° Southwest  Level FlightAware Approximate
Tue 06:23:15 AM 42.5518 149.3534 225° Southwest  Level FlightAware Approximate
Tue 06:24:15 AM 42.4664 149.2373 225° Southwest  Level FlightAware Approximate
Tue 06:25:15 AM 42.3809 149.1215 225° Southwest  Level FlightAware Approximate
Tue 06:26:15 AM 42.2953 149.0060 225° Southwest  Level FlightAware Approximate
Tue 06:27:15 AM 42.2095 148.8908 225° Southwest  Level FlightAware Approximate
Tue 06:28:15 AM 42.1236 148.7759 225° Southwest  Level FlightAware Approximate
Tue 06:29:15 AM 42.0377 148.6614 225° Southwest  Level FlightAware Approximate
Tue 06:30:15 AM 41.9516 148.5471 225° Southwest  Level FlightAware Approximate
Tue 06:31:15 AM 41.8654 148.4332 224° Southwest  Level FlightAware Approximate
Tue 06:32:15 AM 41.7791 148.3195 235° Southwest  Level FlightAware Approximate
Tue 06:33:15 AM 41.7106 148.1873 222° Southwest  Level FlightAware Approximate
Tue 06:34:15 AM 41.6205 148.0793 222° Southwest  Level FlightAware Approximate
Tue 06:35:15 AM 41.5302 147.9718 222° Southwest  Level FlightAware Approximate
Tue 06:36:15 AM 41.4399 147.8645 222° Southwest  Level FlightAware Approximate
Tue 06:37:15 AM 41.3495 147.7574 222° Southwest  Level FlightAware Approximate
Tue 06:38:15 AM 41.2589 147.6507 221° Southwest  Level FlightAware Approximate
Tue 06:39:15 AM 41.1683 147.5443 221° Southwest  Level FlightAware Approximate
Tue 06:40:15 AM 41.0776 147.4382 221° Southwest  Level FlightAware Approximate
Tue 06:41:15 AM 40.9868 147.3324 221° Southwest  Level FlightAware Approximate
Tue 06:42:15 AM 40.8958 147.2269 221° Southwest  Level FlightAware Approximate
Tue 06:43:15 AM 40.8048 147.1216 221° Southwest  Level FlightAware Approximate
Tue 06:44:15 AM 40.7137 147.0167 221° Southwest  Level FlightAware Approximate
Tue 06:45:15 AM 40.6225 146.9120 221° Southwest  Level FlightAware Approximate
Tue 06:46:15 AM 40.5312 146.8076 221° Southwest  Level FlightAware Approximate
Tue 06:47:15 AM 40.4398 146.7035 221° Southwest  Level FlightAware Approximate
Tue 06:48:15 AM 40.3483 146.5997 221° Southwest  Level FlightAware Approximate
Tue 06:49:15 AM 40.2567 146.4962 221° Southwest  Level FlightAware Approximate
Tue 06:50:15 AM 40.1651 146.3929 221° Southwest  Level FlightAware Approximate
Tue 06:51:15 AM 40.0733 146.2900 221° Southwest  Level FlightAware Approximate
Tue 06:52:15 AM 39.9814 146.1873 221° Southwest  Level FlightAware Approximate
Tue 06:53:15 AM 39.8895 146.0849 220° Southwest  Level FlightAware Approximate
Tue 06:54:15 AM 39.7974 145.9827 220° Southwest  Level FlightAware Approximate
Tue 06:55:15 AM 39.7053 145.8808 220° Southwest  Level FlightAware Approximate
Tue 06:56:15 AM 39.6131 145.7792 220° Southwest  Level FlightAware Approximate
Tue 06:57:15 AM 39.5208 145.6779 220° Southwest  Level FlightAware Approximate
Tue 06:58:15 AM 39.4284 145.5769 220° Southwest  Level FlightAware Approximate
Tue 06:59:15 AM 39.3359 145.4761 220° Southwest  Level FlightAware Approximate
Tue 07:00:15 AM 39.2434 145.3755 220° Southwest  Level FlightAware Approximate
Tue 07:01:15 AM 39.1507 145.2753 220° Southwest  Level FlightAware Approximate
Tue 07:02:15 AM 39.0580 145.1753 220° Southwest  Level FlightAware Approximate
Tue 07:03:15 AM 38.9651 145.0755 220° Southwest  Level FlightAware Approximate
Tue 07:04:15 AM 38.8722 144.9761 220° Southwest  Level FlightAware Approximate
Tue 07:05:15 AM 38.7792 144.8768 220° Southwest  Level FlightAware Approximate
Tue 07:06:15 AM 38.6862 144.7779 228° Southwest  Level FlightAware Approximate
Tue 07:07:15 AM 38.6058 144.6622 228° Southwest  Level FlightAware Approximate
Tue 07:08:15 AM 38.5254 144.5467 228° Southwest  Level FlightAware Approximate
Tue 07:09:15 AM 38.4448 144.4315 228° Southwest  Level FlightAware Approximate
Tue 07:10:15 AM 38.3642 144.3166 228° Southwest  Level FlightAware Approximate
Tue 07:11:15 AM 38.2834 144.2019 228° Southwest  Level FlightAware Approximate
Tue 07:12:15 AM 38.2025 144.0874 228° Southwest  Level FlightAware Approximate
Tue 07:13:15 AM 38.1215 143.9733 228° Southwest  Level FlightAware Approximate
Tue 07:14:15 AM 38.0404 143.8593 228° Southwest  Level FlightAware Approximate
Tue 07:15:15 AM 37.9591 143.7456 228° Southwest  Level FlightAware Approximate
Tue 07:16:15 AM 37.8778 143.6322 224° Southwest  Level FlightAware Approximate
Tue 07:17:15 AM 37.7910 143.5261 232° Southwest  Level FlightAware Approximate
Tue 07:18:15 AM 37.7157 143.4064 231° Southwest  Level FlightAware Approximate
Tue 07:19:15 AM 37.6403 143.2870 231° Southwest  Level FlightAware Approximate
Tue 07:20:15 AM 37.5647 143.1678 231° Southwest  Level FlightAware Approximate
Tue 07:21:15 AM 37.4891 143.0489 231° Southwest  Level FlightAware Approximate
Tue 07:22:15 AM 37.4133 142.9302 231° Southwest  Level FlightAware Approximate
Tue 07:23:15 AM 37.3374 142.8117 231° Southwest  Level FlightAware Approximate
Tue 07:24:15 AM 37.2614 142.6935 231° Southwest  Level FlightAware Approximate
Tue 07:25:15 AM 37.1852 142.5755 231° Southwest  Level FlightAware Approximate
Tue 07:26:15 AM 37.1090 142.4578 231° Southwest  Level FlightAware Approximate
Tue 07:27:15 AM 37.0326 142.3403 231° Southwest  Level FlightAware Approximate
Tue 07:28:15 AM 36.9562 142.2230 231° Southwest  Level FlightAware Approximate
Tue 07:29:15 AM 36.8796 142.1060 231° Southwest  Level FlightAware Approximate
Tue 07:30:15 AM 36.8029 141.9892 231° Southwest  Level FlightAware Approximate
Tue 07:31:15 AM 36.7260 141.8726 231° Southwest  Level FlightAware Approximate
Tue 07:32:15 AM 36.6491 141.7563 230° Southwest  Level FlightAware Approximate
Tue 07:33:15 AM 36.5720 141.6402 230° Southwest  Level FlightAware Approximate
Tue 07:34:15 AM 36.4949 141.5243 230° Southwest  Level FlightAware Approximate
Tue 07:35:15 AM 36.4176 141.4087 230° Southwest  Level FlightAware Approximate
Tue 07:36:15 AM 36.3402 141.2933 230° Southwest  Level FlightAware Approximate
Tue 07:37:15 AM 36.2627 141.1781 230° Southwest  Level FlightAware Approximate
Tue 07:38:15 AM 36.1851 141.0632 230° Southwest  Level FlightAware Approximate
Tue 07:39:15 AM 36.1074 140.9484 230° Southwest  Level FlightAware Approximate
Tue 07:40:15 AM 36.0296 140.8340 230° Southwest  Level FlightAware Approximate
Tue 07:41:15 AM 35.9516 140.7197 230° Southwest  Level FlightAware Approximate
Tue 07:42:15 AM 35.8736 140.6057 230° Southwest  Level FlightAware Approximate
Tue 07:43:15 AM 35.7954 140.4918 243° Southwest  Level FlightAware Approximate
Tue 07:44:15 AM 35.7500 140.3833 10° North  Level FlightAware Approximate
Tue 07:45:15 AM 35.8692 140.4081 190° South  Level Estimated
Tue 07:46:15 AM 35.7500 140.3833 10° North  Level FlightAware Approximate
Tue 07:47:15 AM 35.8692 140.4081 190° South  Level Estimated
Tue 07:48:15 AM 35.7500 140.3833 10° North  Level FlightAware Approximate
Tue 07:49:15 AM 35.8692 140.4081 190° South  Level Estimated
Tue 07:50:15 AM 35.7500 140.3833 10° North  Level FlightAware Approximate
Tue 07:51:15 AM 35.8692 140.4081 190° South  Level Estimated
Tue 07:52:15 AM 35.7500 140.3833 10° North  Level FlightAware Approximate
Tue 07:53:15 AM 35.8692 140.4081 10° North  Level Estimated

Login

Don't have an account? Register now (free) for customized features, flight alerts, and more!